VOE8JL LIPE-LIEO
Flight info
| Callsign | VOE8JL |
|---|---|
| Flight time | N/A |
| Altitude | 35000 |
| Route | PELEG DCT BAGNO DCT TINTO DCT GITRI |
| Aircraft | A320/M-SDE3FGHIRWY/LB1 |
Departure
| Time | 2026-04-27 20:16 |
|---|---|
| Airport | Bologna Guglielmo Marconi Airport (LIPE) |
Arrival
| Time | N/A |
|---|---|
| Airport | Olbia Costa Smeralda Airport (LIEO) |
| Time | Latitude | Longitude | Altitude | Speed | Heading |
|---|---|---|---|---|---|
| 2026-04-27 19:55 | 44.53252 | 11.28801 | 132 ft | 0 kts | 207° |
| 2026-04-27 19:55 | 44.53253 | 11.28801 | 130 ft | 0 kts | 207° |
| 2026-04-27 20:08 | 44.53257 | 11.28804 | 130 ft | 3 kts | 206° |
| 2026-04-27 20:09 | 44.53281 | 11.28817 | 130 ft | 4 kts | 190° |
| 2026-04-27 20:09 | 44.53306 | 11.28818 | 130 ft | 4 kts | 154° |
| 2026-04-27 20:09 | 44.53320 | 11.28802 | 126 ft | 1 kts | 117° |
| 2026-04-27 20:09 | 44.53321 | 11.28798 | 125 ft | 0 kts | 117° |
| 2026-04-27 20:12 | 44.53322 | 11.28800 | 125 ft | 1 kts | 100° |
| 2026-04-27 20:12 | 44.53342 | 11.28818 | 127 ft | 7 kts | 10° |
| 2026-04-27 20:12 | 44.53402 | 11.28714 | 126 ft | 18 kts | 295° |
| 2026-04-27 20:12 | 44.53453 | 11.28563 | 128 ft | 17 kts | 295° |
| 2026-04-27 20:13 | 44.53514 | 11.28394 | 126 ft | 22 kts | 297° |
| 2026-04-27 20:13 | 44.53592 | 11.28192 | 129 ft | 26 kts | 298° |
| 2026-04-27 20:13 | 44.53681 | 11.27954 | 126 ft | 29 kts | 296° |
| 2026-04-27 20:13 | 44.53770 | 11.27697 | 128 ft | 30 kts | 295° |
| 2026-04-27 20:14 | 44.53856 | 11.27454 | 128 ft | 25 kts | 297° |
| 2026-04-27 20:14 | 44.53931 | 11.27313 | 129 ft | 15 kts | 325° |
| 2026-04-27 20:14 | 44.54013 | 11.27234 | 129 ft | 15 kts | 327° |
| 2026-04-27 20:14 | 44.54105 | 11.27272 | 127 ft | 18 kts | 78° |
| 2026-04-27 20:15 | 44.54091 | 11.27348 | 126 ft | 4 kts | 117° |
| 2026-04-27 20:15 | 44.53986 | 11.27634 | 127 ft | 70 kts | 116° |
| 2026-04-27 20:15 | 44.53671 | 11.28514 | 124 ft | 130 kts | 117° |
| 2026-04-27 20:15 | 44.53202 | 11.29817 | 356 ft | 158 kts | 117° |
| 2026-04-27 20:16 | 44.52739 | 11.31230 | 1005 ft | 161 kts | 105° |
| 2026-04-27 20:16 | 44.52684 | 11.32789 | 1670 ft | 162 kts | 81° |
| 2026-04-27 20:16 | 44.53074 | 11.34320 | 2141 ft | 178 kts | 59° |
| 2026-04-27 20:16 | 44.53963 | 11.35658 | 2437 ft | 200 kts | 33° |
| 2026-04-27 20:17 | 44.55318 | 11.36365 | 2832 ft | 216 kts | 4° |
| 2026-04-27 20:17 | 44.56820 | 11.36509 | 3609 ft | 217 kts | 6° |
| 2026-04-27 20:17 | 44.57806 | 11.36764 | 4134 ft | 218 kts | 13° |
| 2026-04-27 20:17 | 44.59232 | 11.37690 | 4580 ft | 240 kts | 40° |
| 2026-04-27 20:18 | 44.60201 | 11.39704 | 4970 ft | 264 kts | 75° |
| 2026-04-27 20:18 | 44.60140 | 11.42298 | 5594 ft | 275 kts | 111° |
| 2026-04-27 20:18 | 44.59017 | 11.44448 | 6408 ft | 278 kts | 142° |
| 2026-04-27 20:18 | 44.56869 | 11.46447 | 7537 ft | 282 kts | 150° |
| 2026-04-27 20:19 | 44.55704 | 11.47353 | 8101 ft | 284 kts | 152° |
| 2026-04-27 20:19 | 44.53944 | 11.48662 | 8937 ft | 288 kts | 153° |
| 2026-04-27 20:19 | 44.52156 | 11.49993 | 9771 ft | 292 kts | 152° |
| 2026-04-27 20:19 | 44.50352 | 11.51368 | 10422 ft | 303 kts | 152° |
| 2026-04-27 20:20 | 44.48464 | 11.52842 | 10675 ft | 326 kts | 151° |
| 2026-04-27 20:20 | 44.46420 | 11.54468 | 10884 ft | 349 kts | 150° |
| 2026-04-27 20:20 | 44.44262 | 11.56206 | 11307 ft | 362 kts | 150° |
| 2026-04-27 20:20 | 44.42063 | 11.57988 | 11965 ft | 368 kts | 150° |
| 2026-04-27 20:21 | 44.39837 | 11.59795 | 12652 ft | 372 kts | 150° |
| 2026-04-27 20:21 | 44.37582 | 11.61623 | 13287 ft | 378 kts | 150° |
| 2026-04-27 20:21 | 44.35289 | 11.63476 | 13981 ft | 382 kts | 150° |
| 2026-04-27 20:21 | 44.32977 | 11.65339 | 14617 ft | 385 kts | 150° |
| 2026-04-27 20:22 | 44.30639 | 11.67218 | 15196 ft | 390 kts | 150° |
| 2026-04-27 20:22 | 44.28283 | 11.69109 | 15813 ft | 392 kts | 150° |
| 2026-04-27 20:22 | 44.25908 | 11.71014 | 16436 ft | 395 kts | 150° |
| 2026-04-27 20:22 | 44.23444 | 11.72747 | 17011 ft | 399 kts | 159° |
| 2026-04-27 20:23 | 44.20783 | 11.73883 | 17556 ft | 402 kts | 169° |
| 2026-04-27 20:23 | 44.17102 | 11.74654 | 18282 ft | 406 kts | 173° |
| 2026-04-27 20:23 | 44.11450 | 11.75766 | 19246 ft | 413 kts | 173° |
| 2026-04-27 20:23 | 44.05716 | 11.76914 | 20238 ft | 419 kts | 173° |
| 2026-04-27 20:24 | 43.99898 | 11.78074 | 21197 ft | 425 kts | 173° |
| 2026-04-27 20:24 | 43.88542 | 11.79786 | 22918 ft | 434 kts | 186° |
| 2026-04-27 20:24 | 43.76817 | 11.76297 | 24487 ft | 441 kts | 194° |
| 2026-04-27 20:24 | 43.64725 | 11.72546 | 25825 ft | 450 kts | 194° |
| 2026-04-27 20:25 | 43.52227 | 11.68623 | 27164 ft | 458 kts | 194° |
| 2026-04-27 20:25 | 43.39827 | 11.64744 | 28303 ft | 467 kts | 193° |
| 2026-04-27 20:25 | 43.27081 | 11.60801 | 29635 ft | 470 kts | 193° |
| 2026-04-27 20:25 | 43.14223 | 11.56810 | 31155 ft | 466 kts | 193° |
| 2026-04-27 20:26 | 43.01754 | 11.52970 | 32457 ft | 464 kts | 193° |
| 2026-04-27 20:26 | 42.89169 | 11.49108 | 33821 ft | 462 kts | 193° |
| 2026-04-27 20:26 | 42.76655 | 11.45266 | 35027 ft | 459 kts | 194° |
| 2026-04-27 20:26 | 42.64099 | 11.41459 | 35229 ft | 462 kts | 193° |
| 2026-04-27 20:27 | 42.51510 | 11.37654 | 35087 ft | 467 kts | 194° |
| 2026-04-27 20:27 | 42.38918 | 11.33835 | 35017 ft | 463 kts | 193° |
| 2026-04-27 20:27 | 42.23829 | 11.29298 | 35138 ft | 461 kts | 193° |
| 2026-04-27 20:28 | 42.17559 | 11.27419 | 35136 ft | 462 kts | 193° |
| 2026-04-27 20:28 | 42.12337 | 11.25855 | 35136 ft | 462 kts | 193° |
| 2026-04-27 20:29 | 42.04991 | 11.23667 | 35135 ft | 462 kts | 193° |
| 2026-04-27 20:29 | 41.98711 | 11.21796 | 35138 ft | 462 kts | 193° |
| 2026-04-27 20:30 | 41.92424 | 11.19931 | 35140 ft | 462 kts | 193° |
| 2026-04-27 20:30 | 41.86193 | 11.18087 | 35143 ft | 462 kts | 193° |
| 2026-04-27 20:31 | 41.79913 | 11.16234 | 35143 ft | 462 kts | 193° |
| 2026-04-27 20:31 | 41.73644 | 11.14372 | 35146 ft | 461 kts | 193° |
| 2026-04-27 20:32 | 41.67372 | 11.12512 | 34812 ft | 461 kts | 193° |
| 2026-04-27 20:32 | 41.64240 | 11.11588 | 34574 ft | 461 kts | 193° |
| 2026-04-27 20:32 | 41.61115 | 11.10667 | 34333 ft | 460 kts | 193° |
| 2026-04-27 20:33 | 41.57982 | 11.09748 | 34089 ft | 460 kts | 193° |
| 2026-04-27 20:33 | 41.54856 | 11.08835 | 33814 ft | 460 kts | 193° |
| 2026-04-27 20:33 | 41.51779 | 11.07676 | 33538 ft | 459 kts | 202° |
| 2026-04-27 20:33 | 41.48899 | 11.05870 | 33269 ft | 457 kts | 212° |
| 2026-04-27 20:34 | 41.46306 | 11.03441 | 33002 ft | 456 kts | 222° |
| 2026-04-27 20:34 | 41.44067 | 11.00475 | 32738 ft | 453 kts | 231° |
| 2026-04-27 20:34 | 41.42097 | 10.97196 | 32477 ft | 453 kts | 233° |
| 2026-04-27 20:34 | 41.40133 | 10.93911 | 32217 ft | 453 kts | 232° |
| 2026-04-27 20:35 | 41.38164 | 10.90625 | 31955 ft | 453 kts | 232° |
| 2026-04-27 20:35 | 41.36195 | 10.87349 | 31696 ft | 454 kts | 232° |
| 2026-04-27 20:35 | 41.34250 | 10.84115 | 31451 ft | 454 kts | 232° |
| 2026-04-27 20:35 | 41.32278 | 10.80837 | 31206 ft | 454 kts | 232° |
| 2026-04-27 20:36 | 41.30302 | 10.77556 | 30957 ft | 454 kts | 232° |
| 2026-04-27 20:36 | 41.28329 | 10.74282 | 30699 ft | 454 kts | 232° |
| 2026-04-27 20:36 | 41.26344 | 10.70994 | 29632 ft | 458 kts | 232° |
| 2026-04-27 20:36 | 41.24336 | 10.67670 | 28426 ft | 463 kts | 232° |
| 2026-04-27 20:37 | 41.22314 | 10.64330 | 27344 ft | 465 kts | 232° |
| 2026-04-27 20:37 | 41.20297 | 10.60996 | 26648 ft | 459 kts | 232° |
| 2026-04-27 20:37 | 41.18306 | 10.57703 | 25880 ft | 455 kts | 232° |
| 2026-04-27 20:37 | 41.16336 | 10.54450 | 25124 ft | 450 kts | 232° |
| 2026-04-27 20:38 | 41.14381 | 10.51228 | 24380 ft | 447 kts | 231° |
| 2026-04-27 20:38 | 41.12435 | 10.48028 | 23638 ft | 444 kts | 231° |
| 2026-04-27 20:38 | 41.10497 | 10.44846 | 22866 ft | 440 kts | 231° |
| 2026-04-27 20:38 | 41.08589 | 10.41714 | 22184 ft | 435 kts | 231° |
| 2026-04-27 20:39 | 41.06701 | 10.38617 | 21528 ft | 430 kts | 231° |
| 2026-04-27 20:39 | 41.04830 | 10.35552 | 20887 ft | 425 kts | 231° |
| 2026-04-27 20:39 | 41.02978 | 10.32517 | 20257 ft | 421 kts | 231° |
| 2026-04-27 20:39 | 41.01148 | 10.29519 | 19668 ft | 417 kts | 232° |
| 2026-04-27 20:40 | 40.99329 | 10.26546 | 19094 ft | 412 kts | 232° |
| 2026-04-27 20:40 | 40.97557 | 10.23649 | 18539 ft | 408 kts | 232° |
| 2026-04-27 20:40 | 40.95826 | 10.20706 | 17944 ft | 403 kts | 237° |
| 2026-04-27 20:40 | 40.94509 | 10.17477 | 17437 ft | 396 kts | 249° |
| 2026-04-27 20:41 | 40.93707 | 10.14035 | 16930 ft | 389 kts | 259° |
| 2026-04-27 20:41 | 40.93288 | 10.10545 | 16656 ft | 378 kts | 258° |
| 2026-04-27 20:41 | 40.92346 | 10.07368 | 16579 ft | 372 kts | 244° |
| 2026-04-27 20:41 | 40.91161 | 10.04244 | 16240 ft | 388 kts | 244° |
| 2026-04-27 20:42 | 40.89955 | 10.01028 | 15805 ft | 391 kts | 245° |
| 2026-04-27 20:42 | 40.88770 | 9.97802 | 15394 ft | 390 kts | 245° |
| 2026-04-27 20:42 | 40.87604 | 9.94566 | 14981 ft | 388 kts | 245° |
| 2026-04-27 20:42 | 40.86458 | 9.91349 | 14578 ft | 385 kts | 246° |
| 2026-04-27 20:43 | 40.85343 | 9.88203 | 14231 ft | 384 kts | 246° |
| 2026-04-27 20:43 | 40.84213 | 9.85011 | 13872 ft | 383 kts | 246° |
| 2026-04-27 20:43 | 40.83086 | 9.81831 | 13440 ft | 381 kts | 246° |
| 2026-04-27 20:43 | 40.81962 | 9.78670 | 12996 ft | 379 kts | 246° |
| 2026-04-27 20:44 | 40.80854 | 9.75565 | 12566 ft | 376 kts | 245° |
| 2026-04-27 20:44 | 40.79741 | 9.72451 | 12137 ft | 374 kts | 245° |
| 2026-04-27 20:44 | 40.78633 | 9.69361 | 11713 ft | 371 kts | 245° |
| 2026-04-27 20:44 | 40.77532 | 9.66299 | 11280 ft | 367 kts | 245° |
| 2026-04-27 20:45 | 40.76441 | 9.63270 | 10880 ft | 365 kts | 245° |
| 2026-04-27 20:45 | 40.75352 | 9.60247 | 10476 ft | 363 kts | 245° |
| 2026-04-27 20:45 | 40.74275 | 9.57261 | 10078 ft | 360 kts | 245° |
| 2026-04-27 20:45 | 40.73209 | 9.54303 | 9632 ft | 352 kts | 245° |
| 2026-04-27 20:46 | 40.72172 | 9.51423 | 9184 ft | 344 kts | 245° |
| 2026-04-27 20:46 | 40.71153 | 9.48598 | 8754 ft | 338 kts | 245° |
| 2026-04-27 20:46 | 40.70153 | 9.45832 | 8325 ft | 331 kts | 244° |
| 2026-04-27 20:46 | 40.69167 | 9.43107 | 7913 ft | 326 kts | 244° |
| 2026-04-27 20:47 | 40.68201 | 9.40441 | 7516 ft | 315 kts | 244° |
| 2026-04-27 20:47 | 40.67283 | 9.37912 | 7104 ft | 298 kts | 244° |
| 2026-04-27 20:47 | 40.66418 | 9.35529 | 6704 ft | 285 kts | 244° |
| 2026-04-27 20:47 | 40.65587 | 9.33242 | 6405 ft | 268 kts | 243° |
| 2026-04-27 20:48 | 40.64974 | 9.31011 | 6129 ft | 252 kts | 260° |
| 2026-04-27 20:48 | 40.64925 | 9.29514 | 5941 ft | 244 kts | 275° |
| 2026-04-27 20:48 | 40.65655 | 9.26801 | 5580 ft | 232 kts | 304° |
| 2026-04-27 20:48 | 40.66762 | 9.25345 | 5451 ft | 220 kts | 326° |
| 2026-04-27 20:49 | 40.68128 | 9.24522 | 5333 ft | 215 kts | 346° |
| 2026-04-27 20:49 | 40.69593 | 9.24188 | 5207 ft | 212 kts | 350° |
| 2026-04-27 20:49 | 40.71039 | 9.23879 | 5160 ft | 208 kts | 350° |
| 2026-04-27 20:49 | 40.72477 | 9.23573 | 5213 ft | 210 kts | 353° |
| 2026-04-27 20:50 | 40.73926 | 9.23679 | 5218 ft | 210 kts | 15° |
| 2026-04-27 20:50 | 40.75254 | 9.24476 | 5177 ft | 211 kts | 37° |
| 2026-04-27 20:50 | 40.76252 | 9.25870 | 5099 ft | 209 kts | 56° |
| 2026-04-27 20:50 | 40.77081 | 9.27445 | 4872 ft | 210 kts | 55° |
| 2026-04-27 20:51 | 40.77922 | 9.29038 | 4560 ft | 213 kts | 55° |
| 2026-04-27 20:51 | 40.78753 | 9.30613 | 4250 ft | 208 kts | 55° |
| 2026-04-27 20:51 | 40.79559 | 9.32141 | 3923 ft | 199 kts | 55° |
| 2026-04-27 20:51 | 40.80332 | 9.33610 | 3614 ft | 191 kts | 55° |
| 2026-04-27 20:52 | 40.80762 | 9.34424 | 3452 ft | 187 kts | 55° |